Terminal Aerodrome Forecast
Issued by NWS Nashville, TN

Home | Current Version | Previous Version | Text Only | Print | Product List | Glossary On
Versions: 1 2 3 4 5 6 7 8 9 10 11 12 13 14 15 16 17 18
000
FTUS44 KOHX 241900 AAA
TAFBNA
TAF AMD
KBNA 241948Z 2420/2518 19010G18KT P6SM SCT080 BKN250
     FM250400 17015G25KT P6SM VCTS BKN050CB
      TEMPO 2504/2507 VRB20G40KT 2SM TSRA OVC050CB
     FM250700 22012G22KT P6SM VCSH OVC015
     FM251500 30012G20KT P6SM SCT250=

USA.gov is the U.S. government's official web portal to all federal, state and local government web resources and services.